sensor_id;sensor_type;location;lat;lon;timestamp;P1;durP1;ratioP1;P2;durP2;ratioP2
36855;SDS011;22788;51.434;6.786;2022-12-17T00:01:44;68.87;;;27.57;;
36855;SDS011;22788;51.434;6.786;2022-12-17T00:04:10;65.77;;;28.77;;
36855;SDS011;22788;51.434;6.786;2022-12-17T00:06:36;68.23;;;29.30;;
36855;SDS011;22788;51.434;6.786;2022-12-17T00:09:02;65.23;;;27.50;;
36855;SDS011;22788;51.434;6.786;2022-12-17T00:11:30;69.23;;;28.67;;
36855;SDS011;22788;51.434;6.786;2022-12-17T00:13:56;68.97;;;27.00;;
36855;SDS011;22788;51.434;6.786;2022-12-17T00:16:22;63.80;;;28.10;;
36855;SDS011;22788;51.434;6.786;2022-12-17T00:18:48;56.67;;;26.13;;
36855;SDS011;22788;51.434;6.786;2022-12-17T00:21:14;57.90;;;26.67;;
36855;SDS011;22788;51.434;6.786;2022-12-17T00:23:40;62.13;;;25.97;;
36855;SDS011;22788;51.434;6.786;2022-12-17T00:26:07;55.93;;;25.50;;
36855;SDS011;22788;51.434;6.786;2022-12-17T00:28:34;61.23;;;26.87;;
36855;SDS011;22788;51.434;6.786;2022-12-17T00:31:00;66.30;;;27.80;;
36855;SDS011;22788;51.434;6.786;2022-12-17T00:33:26;59.13;;;25.63;;
36855;SDS011;22788;51.434;6.786;2022-12-17T00:35:52;56.77;;;26.37;;
36855;SDS011;22788;51.434;6.786;2022-12-17T00:38:19;65.27;;;27.67;;
36855;SDS011;22788;51.434;6.786;2022-12-17T00:40:49;56.90;;;26.17;;
36855;SDS011;22788;51.434;6.786;2022-12-17T00:43:15;54.20;;;24.50;;
36855;SDS011;22788;51.434;6.786;2022-12-17T00:45:42;64.07;;;27.33;;
36855;SDS011;22788;51.434;6.786;2022-12-17T00:48:08;61.47;;;26.77;;
36855;SDS011;22788;51.434;6.786;2022-12-17T00:50:34;57.30;;;26.40;;
36855;SDS011;22788;51.434;6.786;2022-12-17T00:53:00;50.00;;;22.50;;
36855;SDS011;22788;51.434;6.786;2022-12-17T00:55:26;52.10;;;24.90;;
36855;SDS011;22788;51.434;6.786;2022-12-17T00:57:53;61.17;;;26.33;;
36855;SDS011;22788;51.434;6.786;2022-12-17T01:00:20;57.87;;;27.03;;
36855;SDS011;22788;51.434;6.786;2022-12-17T01:02:47;58.57;;;25.50;;
36855;SDS011;22788;51.434;6.786;2022-12-17T01:05:13;59.27;;;25.90;;
36855;SDS011;22788;51.434;6.786;2022-12-17T01:07:39;64.17;;;25.53;;
36855;SDS011;22788;51.434;6.786;2022-12-17T01:10:06;51.60;;;24.40;;
36855;SDS011;22788;51.434;6.786;2022-12-17T01:12:32;51.73;;;23.27;;
36855;SDS011;22788;51.434;6.786;2022-12-17T01:14:58;56.30;;;23.97;;
36855;SDS011;22788;51.434;6.786;2022-12-17T01:17:24;48.57;;;23.87;;
36855;SDS011;22788;51.434;6.786;2022-12-17T01:19:51;57.17;;;24.87;;
36855;SDS011;22788;51.434;6.786;2022-12-17T01:22:18;54.00;;;25.77;;
36855;SDS011;22788;51.434;6.786;2022-12-17T01:24:44;50.70;;;23.63;;
36855;SDS011;22788;51.434;6.786;2022-12-17T01:27:10;57.30;;;23.83;;
36855;SDS011;22788;51.434;6.786;2022-12-17T01:29:36;51.57;;;24.10;;
36855;SDS011;22788;51.434;6.786;2022-12-17T01:32:02;54.10;;;23.97;;
36855;SDS011;22788;51.434;6.786;2022-12-17T01:34:28;63.90;;;24.50;;
36855;SDS011;22788;51.434;6.786;2022-12-17T01:36:56;55.90;;;23.77;;
36855;SDS011;22788;51.434;6.786;2022-12-17T01:39:22;53.73;;;24.23;;
36855;SDS011;22788;51.434;6.786;2022-12-17T01:41:48;53.90;;;23.13;;
36855;SDS011;22788;51.434;6.786;2022-12-17T01:44:38;59.40;;;23.00;;
36855;SDS011;22788;51.434;6.786;2022-12-17T01:47:13;56.73;;;23.93;;
36855;SDS011;22788;51.434;6.786;2022-12-17T01:49:39;54.50;;;23.30;;
36855;SDS011;22788;51.434;6.786;2022-12-17T01:52:07;48.07;;;22.20;;
36855;SDS011;22788;51.434;6.786;2022-12-17T01:54:34;54.70;;;24.57;;
36855;SDS011;22788;51.434;6.786;2022-12-17T01:57:01;57.60;;;25.27;;
36855;SDS011;22788;51.434;6.786;2022-12-17T01:59:33;54.23;;;22.77;;
36855;SDS011;22788;51.434;6.786;2022-12-17T02:02:05;54.40;;;22.03;;
36855;SDS011;22788;51.434;6.786;2022-12-17T02:04:31;48.47;;;21.33;;
36855;SDS011;22788;51.434;6.786;2022-12-17T02:07:02;57.47;;;24.03;;
36855;SDS011;22788;51.434;6.786;2022-12-17T02:09:41;55.40;;;22.30;;
36855;SDS011;22788;51.434;6.786;2022-12-17T02:12:15;51.73;;;23.23;;
36855;SDS011;22788;51.434;6.786;2022-12-17T02:14:50;44.93;;;21.67;;
36855;SDS011;22788;51.434;6.786;2022-12-17T02:17:22;50.73;;;23.60;;
36855;SDS011;22788;51.434;6.786;2022-12-17T02:19:56;45.97;;;20.63;;
36855;SDS011;22788;51.434;6.786;2022-12-17T02:22:35;50.43;;;20.53;;
36855;SDS011;22788;51.434;6.786;2022-12-17T02:25:11;45.13;;;20.27;;
36855;SDS011;22788;51.434;6.786;2022-12-17T02:27:46;52.03;;;21.40;;
36855;SDS011;22788;51.434;6.786;2022-12-17T02:30:12;49.57;;;20.13;;
36855;SDS011;22788;51.434;6.786;2022-12-17T02:32:39;51.07;;;21.60;;
36855;SDS011;22788;51.434;6.786;2022-12-17T02:35:09;49.50;;;20.93;;
36855;SDS011;22788;51.434;6.786;2022-12-17T02:37:44;42.93;;;20.63;;
36855;SDS011;22788;51.434;6.786;2022-12-17T02:40:11;48.47;;;20.17;;
36855;SDS011;22788;51.434;6.786;2022-12-17T02:42:37;48.63;;;21.67;;
36855;SDS011;22788;51.434;6.786;2022-12-17T02:45:05;49.20;;;21.67;;
36855;SDS011;22788;51.434;6.786;2022-12-17T02:47:32;44.63;;;20.20;;
36855;SDS011;22788;51.434;6.786;2022-12-17T02:50:00;53.00;;;21.10;;
36855;SDS011;22788;51.434;6.786;2022-12-17T02:52:26;43.00;;;19.87;;
36855;SDS011;22788;51.434;6.786;2022-12-17T02:54:53;42.97;;;19.07;;
36855;SDS011;22788;51.434;6.786;2022-12-17T02:57:19;45.57;;;21.00;;
36855;SDS011;22788;51.434;6.786;2022-12-17T02:59:45;48.20;;;20.30;;
36855;SDS011;22788;51.434;6.786;2022-12-17T03:02:13;40.30;;;19.43;;
36855;SDS011;22788;51.434;6.786;2022-12-17T03:04:39;43.13;;;20.83;;
36855;SDS011;22788;51.434;6.786;2022-12-17T03:07:05;39.83;;;18.60;;
36855;SDS011;22788;51.434;6.786;2022-12-17T03:09:31;48.60;;;18.23;;
36855;SDS011;22788;51.434;6.786;2022-12-17T03:11:57;48.53;;;20.27;;
36855;SDS011;22788;51.434;6.786;2022-12-17T03:14:23;46.67;;;19.50;;
36855;SDS011;22788;51.434;6.786;2022-12-17T03:16:49;41.83;;;19.10;;
36855;SDS011;22788;51.434;6.786;2022-12-17T03:19:17;43.83;;;19.10;;
36855;SDS011;22788;51.434;6.786;2022-12-17T03:21:43;39.03;;;18.27;;
36855;SDS011;22788;51.434;6.786;2022-12-17T03:24:09;39.97;;;18.77;;
36855;SDS011;22788;51.434;6.786;2022-12-17T03:26:35;42.87;;;19.03;;
36855;SDS011;22788;51.434;6.786;2022-12-17T03:29:01;39.33;;;19.10;;
36855;SDS011;22788;51.434;6.786;2022-12-17T03:31:27;44.00;;;19.27;;
36855;SDS011;22788;51.434;6.786;2022-12-17T03:33:53;37.47;;;18.80;;
36855;SDS011;22788;51.434;6.786;2022-12-17T03:36:20;39.20;;;19.37;;
36855;SDS011;22788;51.434;6.786;2022-12-17T03:38:46;46.30;;;19.03;;
36855;SDS011;22788;51.434;6.786;2022-12-17T03:41:12;40.47;;;19.73;;
36855;SDS011;22788;51.434;6.786;2022-12-17T03:43:39;44.67;;;18.60;;
36855;SDS011;22788;51.434;6.786;2022-12-17T03:46:05;43.57;;;19.20;;
36855;SDS011;22788;51.434;6.786;2022-12-17T03:48:31;48.20;;;18.23;;
36855;SDS011;22788;51.434;6.786;2022-12-17T03:50:58;40.60;;;18.23;;
36855;SDS011;22788;51.434;6.786;2022-12-17T03:53:25;45.07;;;19.13;;
36855;SDS011;22788;51.434;6.786;2022-12-17T03:55:51;45.40;;;18.03;;
36855;SDS011;22788;51.434;6.786;2022-12-17T03:58:17;45.53;;;19.00;;
36855;SDS011;22788;51.434;6.786;2022-12-17T04:00:43;45.00;;;19.20;;
36855;SDS011;22788;51.434;6.786;2022-12-17T04:03:10;44.80;;;19.63;;
36855;SDS011;22788;51.434;6.786;2022-12-17T04:05:36;38.73;;;16.97;;
36855;SDS011;22788;51.434;6.786;2022-12-17T04:08:02;41.73;;;16.93;;
36855;SDS011;22788;51.434;6.786;2022-12-17T04:10:29;45.43;;;18.27;;
36855;SDS011;22788;51.434;6.786;2022-12-17T04:12:55;42.70;;;18.70;;
36855;SDS011;22788;51.434;6.786;2022-12-17T04:15:21;41.20;;;18.43;;
36855;SDS011;22788;51.434;6.786;2022-12-17T04:17:47;46.63;;;19.77;;
36855;SDS011;22788;51.434;6.786;2022-12-17T04:20:13;40.10;;;17.47;;
36855;SDS011;22788;51.434;6.786;2022-12-17T04:22:39;42.90;;;16.67;;
36855;SDS011;22788;51.434;6.786;2022-12-17T04:25:06;39.70;;;18.10;;
36855;SDS011;22788;51.434;6.786;2022-12-17T04:27:34;38.93;;;18.77;;
36855;SDS011;22788;51.434;6.786;2022-12-17T04:30:00;46.73;;;19.97;;
36855;SDS011;22788;51.434;6.786;2022-12-17T04:32:26;37.13;;;16.93;;
36855;SDS011;22788;51.434;6.786;2022-12-17T04:34:52;38.17;;;18.27;;
36855;SDS011;22788;51.434;6.786;2022-12-17T04:37:18;40.20;;;17.97;;
36855;SDS011;22788;51.434;6.786;2022-12-17T04:39:44;44.37;;;19.87;;
36855;SDS011;22788;51.434;6.786;2022-12-17T04:42:10;40.57;;;16.73;;
36855;SDS011;22788;51.434;6.786;2022-12-17T04:44:37;38.07;;;18.27;;
36855;SDS011;22788;51.434;6.786;2022-12-17T04:47:03;42.40;;;17.17;;
36855;SDS011;22788;51.434;6.786;2022-12-17T04:49:29;38.17;;;16.80;;
36855;SDS011;22788;51.434;6.786;2022-12-17T04:51:55;40.83;;;16.97;;
36855;SDS011;22788;51.434;6.786;2022-12-17T04:54:21;39.50;;;18.50;;
36855;SDS011;22788;51.434;6.786;2022-12-17T04:56:47;33.63;;;15.63;;
36855;SDS011;22788;51.434;6.786;2022-12-17T04:59:13;34.23;;;17.33;;
36855;SDS011;22788;51.434;6.786;2022-12-17T05:01:41;36.33;;;16.37;;
36855;SDS011;22788;51.434;6.786;2022-12-17T05:04:07;36.80;;;17.13;;
36855;SDS011;22788;51.434;6.786;2022-12-17T05:06:33;36.70;;;15.83;;
36855;SDS011;22788;51.434;6.786;2022-12-17T05:08:59;35.93;;;17.03;;
36855;SDS011;22788;51.434;6.786;2022-12-17T05:11:25;35.60;;;15.60;;
36855;SDS011;22788;51.434;6.786;2022-12-17T05:13:51;43.53;;;16.57;;
36855;SDS011;22788;51.434;6.786;2022-12-17T05:16:17;36.97;;;15.77;;
36855;SDS011;22788;51.434;6.786;2022-12-17T05:18:44;36.33;;;15.20;;
36855;SDS011;22788;51.434;6.786;2022-12-17T05:21:11;36.23;;;16.63;;
36855;SDS011;22788;51.434;6.786;2022-12-17T05:23:37;42.70;;;17.17;;
36855;SDS011;22788;51.434;6.786;2022-12-17T05:26:04;34.33;;;16.73;;
36855;SDS011;22788;51.434;6.786;2022-12-17T05:28:31;34.33;;;16.53;;
36855;SDS011;22788;51.434;6.786;2022-12-17T05:30:57;35.13;;;15.93;;
36855;SDS011;22788;51.434;6.786;2022-12-17T05:33:23;34.77;;;16.37;;
36855;SDS011;22788;51.434;6.786;2022-12-17T05:35:50;37.43;;;15.73;;
36855;SDS011;22788;51.434;6.786;2022-12-17T05:38:16;40.70;;;17.80;;
36855;SDS011;22788;51.434;6.786;2022-12-17T05:40:43;40.83;;;16.07;;
36855;SDS011;22788;51.434;6.786;2022-12-17T05:43:10;32.43;;;14.97;;
36855;SDS011;22788;51.434;6.786;2022-12-17T05:45:37;33.17;;;16.00;;
36855;SDS011;22788;51.434;6.786;2022-12-17T05:48:03;33.73;;;15.37;;
36855;SDS011;22788;51.434;6.786;2022-12-17T05:50:29;35.33;;;16.10;;
36855;SDS011;22788;51.434;6.786;2022-12-17T05:53:00;33.87;;;15.80;;
36855;SDS011;22788;51.434;6.786;2022-12-17T05:55:27;34.23;;;14.93;;
36855;SDS011;22788;51.434;6.786;2022-12-17T05:57:59;34.90;;;16.47;;
36855;SDS011;22788;51.434;6.786;2022-12-17T06:00:26;31.97;;;15.17;;
36855;SDS011;22788;51.434;6.786;2022-12-17T06:02:55;40.43;;;17.00;;
36855;SDS011;22788;51.434;6.786;2022-12-17T06:05:22;33.23;;;14.70;;
36855;SDS011;22788;51.434;6.786;2022-12-17T06:07:48;28.43;;;14.27;;
36855;SDS011;22788;51.434;6.786;2022-12-17T06:10:15;31.10;;;16.30;;
36855;SDS011;22788;51.434;6.786;2022-12-17T06:12:42;29.53;;;14.60;;
36855;SDS011;22788;51.434;6.786;2022-12-17T06:15:08;31.97;;;14.63;;
36855;SDS011;22788;51.434;6.786;2022-12-17T06:17:34;31.40;;;16.43;;
36855;SDS011;22788;51.434;6.786;2022-12-17T06:20:00;29.33;;;14.93;;
36855;SDS011;22788;51.434;6.786;2022-12-17T06:22:26;31.20;;;15.73;;
36855;SDS011;22788;51.434;6.786;2022-12-17T06:24:52;35.07;;;16.70;;
36855;SDS011;22788;51.434;6.786;2022-12-17T06:27:20;32.40;;;15.83;;
36855;SDS011;22788;51.434;6.786;2022-12-17T06:29:46;33.33;;;15.40;;
36855;SDS011;22788;51.434;6.786;2022-12-17T06:32:12;32.57;;;14.70;;
36855;SDS011;22788;51.434;6.786;2022-12-17T06:34:38;34.73;;;16.13;;
36855;SDS011;22788;51.434;6.786;2022-12-17T06:37:04;31.53;;;15.43;;
36855;SDS011;22788;51.434;6.786;2022-12-17T06:39:30;34.47;;;16.00;;
36855;SDS011;22788;51.434;6.786;2022-12-17T06:41:56;31.90;;;15.63;;
36855;SDS011;22788;51.434;6.786;2022-12-17T06:44:24;34.40;;;14.93;;
36855;SDS011;22788;51.434;6.786;2022-12-17T06:46:50;34.40;;;15.63;;
36855;SDS011;22788;51.434;6.786;2022-12-17T06:49:16;33.87;;;15.03;;
36855;SDS011;22788;51.434;6.786;2022-12-17T06:51:42;32.03;;;14.87;;
36855;SDS011;22788;51.434;6.786;2022-12-17T06:54:08;28.60;;;15.17;;
36855;SDS011;22788;51.434;6.786;2022-12-17T06:56:34;32.77;;;15.13;;
36855;SDS011;22788;51.434;6.786;2022-12-17T06:59:00;36.53;;;15.70;;
36855;SDS011;22788;51.434;6.786;2022-12-17T07:01:27;30.00;;;14.03;;
36855;SDS011;22788;51.434;6.786;2022-12-17T07:03:53;33.13;;;15.17;;
36855;SDS011;22788;51.434;6.786;2022-12-17T07:06:21;30.80;;;14.97;;
36855;SDS011;22788;51.434;6.786;2022-12-17T07:08:47;29.77;;;15.53;;
36855;SDS011;22788;51.434;6.786;2022-12-17T07:11:13;34.97;;;16.13;;
36855;SDS011;22788;51.434;6.786;2022-12-17T07:13:39;30.60;;;14.93;;
36855;SDS011;22788;51.434;6.786;2022-12-17T07:16:05;31.50;;;14.70;;
36855;SDS011;22788;51.434;6.786;2022-12-17T07:18:32;30.17;;;14.87;;
36855;SDS011;22788;51.434;6.786;2022-12-17T07:20:58;32.40;;;15.97;;
36855;SDS011;22788;51.434;6.786;2022-12-17T07:23:24;29.70;;;15.77;;
36855;SDS011;22788;51.434;6.786;2022-12-17T07:25:51;34.10;;;16.03;;
36855;SDS011;22788;51.434;6.786;2022-12-17T07:28:17;34.77;;;14.83;;
36855;SDS011;22788;51.434;6.786;2022-12-17T07:30:43;35.57;;;15.10;;
36855;SDS011;22788;51.434;6.786;2022-12-17T07:33:09;32.97;;;15.77;;
36855;SDS011;22788;51.434;6.786;2022-12-17T07:35:36;33.20;;;15.80;;
36855;SDS011;22788;51.434;6.786;2022-12-17T07:38:03;29.00;;;15.40;;
36855;SDS011;22788;51.434;6.786;2022-12-17T07:40:29;28.00;;;14.47;;
36855;SDS011;22788;51.434;6.786;2022-12-17T07:42:55;34.60;;;16.00;;
36855;SDS011;22788;51.434;6.786;2022-12-17T07:45:21;32.87;;;15.17;;
36855;SDS011;22788;51.434;6.786;2022-12-17T07:47:50;33.70;;;15.53;;
36855;SDS011;22788;51.434;6.786;2022-12-17T07:50:17;28.70;;;14.33;;
36855;SDS011;22788;51.434;6.786;2022-12-17T07:52:45;30.43;;;16.13;;
36855;SDS011;22788;51.434;6.786;2022-12-17T07:55:11;36.47;;;16.90;;
36855;SDS011;22788;51.434;6.786;2022-12-17T07:57:37;30.13;;;14.27;;
36855;SDS011;22788;51.434;6.786;2022-12-17T08:00:03;31.23;;;14.10;;
36855;SDS011;22788;51.434;6.786;2022-12-17T08:02:30;30.37;;;15.10;;
36855;SDS011;22788;51.434;6.786;2022-12-17T08:04:56;30.50;;;13.53;;
36855;SDS011;22788;51.434;6.786;2022-12-17T08:07:22;30.83;;;14.07;;
36855;SDS011;22788;51.434;6.786;2022-12-17T08:09:50;29.83;;;14.33;;
36855;SDS011;22788;51.434;6.786;2022-12-17T08:12:16;32.50;;;14.90;;
36855;SDS011;22788;51.434;6.786;2022-12-17T08:14:42;34.30;;;14.87;;
36855;SDS011;22788;51.434;6.786;2022-12-17T08:17:08;29.90;;;14.10;;
36855;SDS011;22788;51.434;6.786;2022-12-17T08:19:34;32.07;;;14.30;;
36855;SDS011;22788;51.434;6.786;2022-12-17T08:22:00;28.70;;;14.00;;
36855;SDS011;22788;51.434;6.786;2022-12-17T08:24:26;26.63;;;13.90;;
36855;SDS011;22788;51.434;6.786;2022-12-17T08:26:53;33.57;;;14.77;;
36855;SDS011;22788;51.434;6.786;2022-12-17T08:29:19;32.07;;;14.47;;
36855;SDS011;22788;51.434;6.786;2022-12-17T08:31:45;37.73;;;14.90;;
36855;SDS011;22788;51.434;6.786;2022-12-17T08:34:11;32.80;;;14.67;;
36855;SDS011;22788;51.434;6.786;2022-12-17T08:36:37;31.43;;;14.53;;
36855;SDS011;22788;51.434;6.786;2022-12-17T08:39:03;32.53;;;15.13;;
36855;SDS011;22788;51.434;6.786;2022-12-17T08:41:29;31.33;;;14.10;;
36855;SDS011;22788;51.434;6.786;2022-12-17T08:43:57;29.93;;;14.70;;
36855;SDS011;22788;51.434;6.786;2022-12-17T08:46:23;32.20;;;15.40;;
36855;SDS011;22788;51.434;6.786;2022-12-17T08:48:49;35.40;;;14.27;;
36855;SDS011;22788;51.434;6.786;2022-12-17T08:51:15;33.67;;;15.20;;
36855;SDS011;22788;51.434;6.786;2022-12-17T08:53:41;30.93;;;15.40;;
36855;SDS011;22788;51.434;6.786;2022-12-17T08:56:07;26.30;;;13.83;;
36855;SDS011;22788;51.434;6.786;2022-12-17T08:58:33;30.03;;;13.57;;
36855;SDS011;22788;51.434;6.786;2022-12-17T09:01:01;30.17;;;14.47;;
36855;SDS011;22788;51.434;6.786;2022-12-17T09:03:27;34.73;;;15.07;;
36855;SDS011;22788;51.434;6.786;2022-12-17T09:05:53;25.30;;;12.93;;
36855;SDS011;22788;51.434;6.786;2022-12-17T09:08:19;28.80;;;14.67;;
36855;SDS011;22788;51.434;6.786;2022-12-17T09:10:45;28.17;;;13.80;;
36855;SDS011;22788;51.434;6.786;2022-12-17T09:13:11;30.73;;;12.97;;
36855;SDS011;22788;51.434;6.786;2022-12-17T09:15:38;27.30;;;13.20;;
36855;SDS011;22788;51.434;6.786;2022-12-17T09:18:05;28.97;;;14.00;;
36855;SDS011;22788;51.434;6.786;2022-12-17T09:20:31;30.87;;;13.73;;
36855;SDS011;22788;51.434;6.786;2022-12-17T09:22:57;25.60;;;12.70;;
36855;SDS011;22788;51.434;6.786;2022-12-17T09:25:23;27.53;;;13.33;;
36855;SDS011;22788;51.434;6.786;2022-12-17T09:27:49;27.33;;;14.00;;
36855;SDS011;22788;51.434;6.786;2022-12-17T09:30:15;29.23;;;14.20;;
36855;SDS011;22788;51.434;6.786;2022-12-17T09:32:41;24.43;;;14.20;;
36855;SDS011;22788;51.434;6.786;2022-12-17T09:35:09;26.13;;;13.37;;
36855;SDS011;22788;51.434;6.786;2022-12-17T09:37:35;26.37;;;13.17;;
36855;SDS011;22788;51.434;6.786;2022-12-17T09:40:01;27.47;;;13.33;;
36855;SDS011;22788;51.434;6.786;2022-12-17T09:42:28;21.87;;;12.30;;
36855;SDS011;22788;51.434;6.786;2022-12-17T09:44:59;27.10;;;12.70;;
36855;SDS011;22788;51.434;6.786;2022-12-17T09:47:33;27.50;;;13.07;;
36855;SDS011;22788;51.434;6.786;2022-12-17T09:50:07;31.40;;;12.43;;
36855;SDS011;22788;51.434;6.786;2022-12-17T09:52:39;25.07;;;12.13;;
36855;SDS011;22788;51.434;6.786;2022-12-17T09:55:16;27.50;;;13.17;;
36855;SDS011;22788;51.434;6.786;2022-12-17T09:57:45;27.17;;;11.83;;
36855;SDS011;22788;51.434;6.786;2022-12-17T10:00:14;25.83;;;12.83;;
36855;SDS011;22788;51.434;6.786;2022-12-17T10:02:41;25.73;;;11.90;;
36855;SDS011;22788;51.434;6.786;2022-12-17T10:05:08;26.43;;;12.03;;
36855;SDS011;22788;51.434;6.786;2022-12-17T10:07:43;26.17;;;11.93;;
36855;SDS011;22788;51.434;6.786;2022-12-17T10:10:13;23.07;;;11.53;;
36855;SDS011;22788;51.434;6.786;2022-12-17T10:12:42;23.27;;;12.70;;
36855;SDS011;22788;51.434;6.786;2022-12-17T10:15:11;25.07;;;12.13;;
36855;SDS011;22788;51.434;6.786;2022-12-17T10:17:38;29.67;;;14.38;;
36855;SDS011;22788;51.434;6.786;2022-12-17T10:20:10;29.27;;;14.52;;
36855;SDS011;22788;51.434;6.786;2022-12-17T10:22:46;36.15;;;18.35;;
36855;SDS011;22788;51.434;6.786;2022-12-17T10:25:14;35.05;;;16.77;;
36855;SDS011;22788;51.434;6.786;2022-12-17T10:27:42;27.27;;;13.93;;
36855;SDS011;22788;51.434;6.786;2022-12-17T10:30:13;33.97;;;14.70;;
36855;SDS011;22788;51.434;6.786;2022-12-17T10:32:40;23.23;;;12.77;;
36855;SDS011;22788;51.434;6.786;2022-12-17T10:35:07;32.60;;;14.27;;
36855;SDS011;22788;51.434;6.786;2022-12-17T10:37:39;24.67;;;12.97;;
36855;SDS011;22788;51.434;6.786;2022-12-17T10:40:13;29.47;;;13.60;;
36855;SDS011;22788;51.434;6.786;2022-12-17T10:42:44;22.60;;;13.63;;
36855;SDS011;22788;51.434;6.786;2022-12-17T10:45:21;25.37;;;12.23;;
36855;SDS011;22788;51.434;6.786;2022-12-17T10:47:49;24.00;;;12.70;;
36855;SDS011;22788;51.434;6.786;2022-12-17T10:50:15;24.77;;;12.77;;
36855;SDS011;22788;51.434;6.786;2022-12-17T10:52:45;25.87;;;12.80;;
36855;SDS011;22788;51.434;6.786;2022-12-17T10:55:18;26.07;;;12.60;;
36855;SDS011;22788;51.434;6.786;2022-12-17T10:57:48;22.52;;;12.27;;
36855;SDS011;22788;51.434;6.786;2022-12-17T11:00:21;31.70;;;13.50;;
36855;SDS011;22788;51.434;6.786;2022-12-17T11:02:49;30.95;;;15.07;;
36855;SDS011;22788;51.434;6.786;2022-12-17T11:05:21;26.70;;;13.43;;
36855;SDS011;22788;51.434;6.786;2022-12-17T11:07:52;26.87;;;13.67;;
36855;SDS011;22788;51.434;6.786;2022-12-17T11:10:18;29.57;;;14.63;;
36855;SDS011;22788;51.434;6.786;2022-12-17T11:12:47;26.50;;;13.77;;
36855;SDS011;22788;51.434;6.786;2022-12-17T11:15:18;25.00;;;13.20;;
36855;SDS011;22788;51.434;6.786;2022-12-17T11:17:46;28.80;;;13.67;;
36855;SDS011;22788;51.434;6.786;2022-12-17T11:20:18;25.73;;;13.17;;
36855;SDS011;22788;51.434;6.786;2022-12-17T11:22:49;25.33;;;12.37;;
36855;SDS011;22788;51.434;6.786;2022-12-17T11:25:22;27.30;;;13.30;;
36855;SDS011;22788;51.434;6.786;2022-12-17T11:27:57;25.43;;;12.40;;
36855;SDS011;22788;51.434;6.786;2022-12-17T11:30:39;26.30;;;11.57;;
36855;SDS011;22788;51.434;6.786;2022-12-17T11:33:13;22.83;;;12.57;;
36855;SDS011;22788;51.434;6.786;2022-12-17T11:35:45;23.30;;;12.93;;
36855;SDS011;22788;51.434;6.786;2022-12-17T11:38:20;25.07;;;13.13;;
36855;SDS011;22788;51.434;6.786;2022-12-17T11:40:57;29.13;;;13.53;;
36855;SDS011;22788;51.434;6.786;2022-12-17T11:43:30;24.87;;;13.40;;
36855;SDS011;22788;51.434;6.786;2022-12-17T11:46:05;23.93;;;12.00;;
36855;SDS011;22788;51.434;6.786;2022-12-17T11:48:41;25.77;;;12.83;;
36855;SDS011;22788;51.434;6.786;2022-12-17T11:51:13;25.43;;;12.30;;
36855;SDS011;22788;51.434;6.786;2022-12-17T11:53:46;24.30;;;13.30;;
36855;SDS011;22788;51.434;6.786;2022-12-17T11:56:23;27.53;;;13.57;;
36855;SDS011;22788;51.434;6.786;2022-12-17T11:58:56;23.80;;;12.50;;
36855;SDS011;22788;51.434;6.786;2022-12-17T12:01:33;26.10;;;13.40;;
36855;SDS011;22788;51.434;6.786;2022-12-17T12:04:07;25.80;;;12.27;;
36855;SDS011;22788;51.434;6.786;2022-12-17T12:06:44;24.50;;;12.37;;
36855;SDS011;22788;51.434;6.786;2022-12-17T12:09:18;24.77;;;13.07;;
36855;SDS011;22788;51.434;6.786;2022-12-17T12:11:52;24.97;;;13.00;;
36855;SDS011;22788;51.434;6.786;2022-12-17T12:14:28;27.57;;;13.60;;
36855;SDS011;22788;51.434;6.786;2022-12-17T12:17:10;20.73;;;13.00;;
36855;SDS011;22788;51.434;6.786;2022-12-17T12:19:49;18.87;;;11.93;;
36855;SDS011;22788;51.434;6.786;2022-12-17T12:22:21;27.13;;;14.03;;
36855;SDS011;22788;51.434;6.786;2022-12-17T12:25:05;25.67;;;13.07;;
36855;SDS011;22788;51.434;6.786;2022-12-17T12:27:48;21.63;;;11.70;;
36855;SDS011;22788;51.434;6.786;2022-12-17T12:30:20;23.10;;;12.97;;
36855;SDS011;22788;51.434;6.786;2022-12-17T12:32:51;23.40;;;12.57;;
36855;SDS011;22788;51.434;6.786;2022-12-17T12:35:25;26.13;;;13.93;;
36855;SDS011;22788;51.434;6.786;2022-12-17T12:37:53;23.13;;;13.00;;
36855;SDS011;22788;51.434;6.786;2022-12-17T12:40:20;27.60;;;13.27;;
36855;SDS011;22788;51.434;6.786;2022-12-17T12:42:55;23.40;;;12.17;;
36855;SDS011;22788;51.434;6.786;2022-12-17T12:45:31;26.43;;;13.27;;
36855;SDS011;22788;51.434;6.786;2022-12-17T12:48:05;26.43;;;13.60;;
36855;SDS011;22788;51.434;6.786;2022-12-17T12:50:44;25.80;;;13.07;;
36855;SDS011;22788;51.434;6.786;2022-12-17T12:53:15;24.50;;;12.77;;
36855;SDS011;22788;51.434;6.786;2022-12-17T12:55:42;24.47;;;13.00;;
36855;SDS011;22788;51.434;6.786;2022-12-17T12:58:22;25.67;;;13.00;;
36855;SDS011;22788;51.434;6.786;2022-12-17T13:00:50;25.20;;;12.07;;
36855;SDS011;22788;51.434;6.786;2022-12-17T13:03:25;23.03;;;13.23;;
36855;SDS011;22788;51.434;6.786;2022-12-17T13:05:53;28.90;;;13.60;;
36855;SDS011;22788;51.434;6.786;2022-12-17T13:08:20;21.07;;;12.13;;
36855;SDS011;22788;51.434;6.786;2022-12-17T13:10:51;25.83;;;13.47;;
36855;SDS011;22788;51.434;6.786;2022-12-17T13:13:28;25.53;;;13.60;;
36855;SDS011;22788;51.434;6.786;2022-12-17T13:16:00;22.67;;;12.33;;
36855;SDS011;22788;51.434;6.786;2022-12-17T13:18:31;23.73;;;12.40;;
36855;SDS011;22788;51.434;6.786;2022-12-17T13:21:00;25.13;;;13.03;;
36855;SDS011;22788;51.434;6.786;2022-12-17T13:23:29;22.97;;;13.37;;
36855;SDS011;22788;51.434;6.786;2022-12-17T13:26:13;25.17;;;13.50;;
36855;SDS011;22788;51.434;6.786;2022-12-17T13:28:46;25.17;;;13.20;;
36855;SDS011;22788;51.434;6.786;2022-12-17T13:31:23;21.33;;;12.37;;
36855;SDS011;22788;51.434;6.786;2022-12-17T13:33:52;26.70;;;13.43;;
36855;SDS011;22788;51.434;6.786;2022-12-17T13:36:27;24.40;;;12.87;;
36855;SDS011;22788;51.434;6.786;2022-12-17T13:39:00;26.73;;;13.80;;
36855;SDS011;22788;51.434;6.786;2022-12-17T13:41:30;26.17;;;12.37;;
36855;SDS011;22788;51.434;6.786;2022-12-17T13:44:00;24.37;;;12.63;;
36855;SDS011;22788;51.434;6.786;2022-12-17T13:46:33;27.20;;;13.83;;
36855;SDS011;22788;51.434;6.786;2022-12-17T13:49:05;26.97;;;13.70;;
36855;SDS011;22788;51.434;6.786;2022-12-17T13:51:41;24.50;;;12.80;;
36855;SDS011;22788;51.434;6.786;2022-12-17T13:54:12;22.00;;;13.37;;
36855;SDS011;22788;51.434;6.786;2022-12-17T13:56:41;24.93;;;12.73;;
36855;SDS011;22788;51.434;6.786;2022-12-17T13:59:15;26.30;;;13.33;;
36855;SDS011;22788;51.434;6.786;2022-12-17T14:01:43;25.63;;;13.83;;
36855;SDS011;22788;51.434;6.786;2022-12-17T14:04:17;25.00;;;13.83;;
36855;SDS011;22788;51.434;6.786;2022-12-17T14:06:44;24.70;;;14.30;;
36855;SDS011;22788;51.434;6.786;2022-12-17T14:09:11;25.13;;;14.77;;
36855;SDS011;22788;51.434;6.786;2022-12-17T14:11:40;24.57;;;13.30;;
36855;SDS011;22788;51.434;6.786;2022-12-17T14:14:07;23.47;;;13.70;;
36855;SDS011;22788;51.434;6.786;2022-12-17T14:16:43;27.53;;;13.33;;
36855;SDS011;22788;51.434;6.786;2022-12-17T14:19:09;22.67;;;13.13;;
36855;SDS011;22788;51.434;6.786;2022-12-17T14:21:35;27.10;;;13.63;;
36855;SDS011;22788;51.434;6.786;2022-12-17T14:24:01;27.03;;;12.83;;
36855;SDS011;22788;51.434;6.786;2022-12-17T14:26:29;24.97;;;13.57;;
36855;SDS011;22788;51.434;6.786;2022-12-17T14:28:55;26.07;;;13.00;;